createdAt,value
2019-04-11T00:02:00.408Z,-0.50
2019-04-11T00:04:26.850Z,-0.60
2019-04-11T00:06:54.036Z,-0.60
2019-04-11T00:09:20.802Z,-0.60
2019-04-11T00:11:48.209Z,-0.60
2019-04-11T00:14:15.824Z,-0.70
2019-04-11T00:16:43.472Z,-0.80
2019-04-11T00:19:09.888Z,-0.70
2019-04-11T00:21:38.061Z,-0.70
2019-04-11T00:24:05.545Z,-0.80
2019-04-11T00:26:32.708Z,-0.80
2019-04-11T00:29:00.385Z,-0.70
2019-04-11T00:31:26.745Z,-0.70
2019-04-11T00:33:54.189Z,-0.70
2019-04-11T00:36:20.651Z,-0.70
2019-04-11T00:38:47.821Z,-0.60
2019-04-11T00:41:15.477Z,-0.60
2019-04-11T00:43:43.808Z,-0.60
2019-04-11T00:46:10.105Z,-0.70
2019-04-11T00:48:37.618Z,-0.70
2019-04-11T00:51:04.543Z,-0.70
2019-04-11T00:53:31.062Z,-0.70
2019-04-11T00:55:57.459Z,-0.80
2019-04-11T00:58:23.883Z,-0.90
2019-04-11T01:00:51.315Z,-1.00
2019-04-11T01:03:18.002Z,-1.00
2019-04-11T01:05:44.415Z,-1.00
2019-04-11T01:08:11.481Z,-0.90
2019-04-11T01:10:39.263Z,-1.10
2019-04-11T01:13:07.066Z,-1.20
2019-04-11T01:15:34.050Z,-1.30
2019-04-11T01:18:01.399Z,-1.30
2019-04-11T01:20:27.911Z,-1.50
2019-04-11T01:22:54.326Z,-1.50
2019-04-11T01:25:20.704Z,-1.60
2019-04-11T01:27:48.010Z,-1.60
2019-04-11T01:30:18.560Z,-1.60
2019-04-11T01:32:44.953Z,-1.70
2019-04-11T01:35:11.301Z,-1.80
2019-04-11T01:37:39.744Z,-1.80
2019-04-11T01:40:07.667Z,-1.80
2019-04-11T01:42:35.436Z,-1.80
2019-04-11T01:45:03.127Z,-1.90
2019-04-11T01:47:46.978Z,-1.90
2019-04-11T01:50:15.195Z,-2.00
2019-04-11T01:52:42.434Z,-2.00
2019-04-11T01:55:10.212Z,-2.10
2019-04-11T01:57:36.697Z,-2.00
2019-04-11T02:00:04.493Z,-2.10
2019-04-11T02:02:37.420Z,-2.10
2019-04-11T02:05:08.579Z,-2.10
2019-04-11T02:07:34.926Z,-2.20
2019-04-11T02:10:02.465Z,-2.20
2019-04-11T02:12:29.076Z,-2.30
2019-04-11T02:14:55.602Z,-2.30
2019-04-11T02:17:22.325Z,-2.20
2019-04-11T02:19:48.850Z,-2.20
2019-04-11T02:22:18.026Z,-2.20
2019-04-11T02:24:59.133Z,-2.20
2019-04-11T02:27:27.416Z,-2.30
2019-04-11T02:29:55.024Z,-2.30
2019-04-11T02:32:24.410Z,-2.20
2019-04-11T02:34:54.617Z,-2.30
2019-04-11T02:37:19.740Z,-2.40
2019-04-11T02:39:47.288Z,-2.40
2019-04-11T02:42:14.928Z,-2.40
2019-04-11T02:44:59.906Z,-2.50
2019-04-11T02:47:15.824Z,-2.40
2019-04-11T02:49:39.241Z,-2.40
2019-04-11T02:52:07.112Z,-2.40
2019-04-11T02:54:34.286Z,-2.50
2019-04-11T02:57:02.400Z,-2.50
2019-04-11T02:59:30.651Z,-2.50
2019-04-11T03:01:58.154Z,-2.50
2019-04-11T03:04:25.200Z,-2.60
2019-04-11T03:06:53.026Z,-2.50
2019-04-11T03:09:20.281Z,-2.60
2019-04-11T03:11:49.281Z,-2.60
2019-04-11T03:14:16.914Z,-2.70
2019-04-11T03:16:56.245Z,-2.70
2019-04-11T03:19:25.405Z,-2.70
2019-04-11T03:21:42.377Z,-2.70
2019-04-11T03:24:10.951Z,-2.70
2019-04-11T03:26:37.754Z,-2.80
2019-04-11T03:29:06.327Z,-2.80
2019-04-11T03:32:13.831Z,-2.70
2019-04-11T03:34:52.183Z,-2.60
2019-04-11T03:37:15.546Z,-2.70
2019-04-11T03:39:16.943Z,-2.70
2019-04-11T03:41:42.454Z,-2.80
2019-04-11T03:44:04.445Z,-2.80
2019-04-11T03:46:40.136Z,-2.80
2019-04-11T03:49:02.780Z,-2.80
2019-04-11T03:51:21.039Z,-2.80
2019-04-11T03:53:49.109Z,-2.80
2019-04-11T03:56:16.272Z,-2.80
2019-04-11T03:58:46.186Z,-2.80
2019-04-11T04:01:14.074Z,-2.90
2019-04-11T04:03:42.583Z,-2.90
2019-04-11T04:06:09.720Z,-2.90
2019-04-11T04:08:38.500Z,-2.90
2019-04-11T04:11:27.133Z,-3.00
2019-04-11T04:14:14.734Z,-2.90
2019-04-11T04:16:49.838Z,-3.00
2019-04-11T04:19:35.347Z,-3.00
2019-04-11T04:22:13.554Z,-3.00
2019-04-11T04:24:42.730Z,-3.00
2019-04-11T04:27:10.076Z,-3.00
2019-04-11T04:29:37.868Z,-3.00
2019-04-11T04:32:05.441Z,-3.00
2019-04-11T04:34:36.665Z,-2.90
2019-04-11T04:37:03.634Z,-2.90
2019-04-11T04:39:32.235Z,-2.80
2019-04-11T04:42:05.857Z,-2.90
2019-04-11T04:44:26.979Z,-2.80
2019-04-11T04:47:07.407Z,-2.80
2019-04-11T04:49:23.693Z,-2.80
2019-04-11T04:51:53.175Z,-2.80
2019-04-11T04:54:19.963Z,-2.80
2019-04-11T04:56:47.343Z,-2.70
2019-04-11T04:59:14.620Z,-2.70
2019-04-11T05:01:43.799Z,-2.60
2019-04-11T05:04:11.897Z,-2.60
2019-04-11T05:06:40.688Z,-2.50
2019-04-11T05:09:08.598Z,-2.40
2019-04-11T05:11:36.137Z,-2.30
2019-04-11T05:14:03.040Z,-2.30
2019-04-11T05:16:29.855Z,-2.10
2019-04-11T05:18:56.667Z,-2.10
2019-04-11T05:21:25.351Z,-1.80
2019-04-11T05:23:52.152Z,-1.80
2019-04-11T05:26:19.378Z,-1.60
2019-04-11T05:28:45.876Z,-1.50
2019-04-11T05:31:12.289Z,-1.30
2019-04-11T05:33:39.088Z,-1.10
2019-04-11T05:36:06.030Z,-1.00
2019-04-11T05:38:32.789Z,-0.80
2019-04-11T05:40:59.299Z,-0.60
2019-04-11T05:43:30.102Z,-0.40
2019-04-11T05:45:55.236Z,-0.10
2019-04-11T05:48:41.154Z,0.20
2019-04-11T05:51:08.791Z,0.70
2019-04-11T05:53:37.007Z,1.30
2019-04-11T05:56:05.370Z,2.00
2019-04-11T05:58:34.587Z,2.60
2019-04-11T06:01:22.271Z,3.10
2019-04-11T06:03:52.556Z,3.70
2019-04-11T06:06:21.697Z,4.20
2019-04-11T06:08:49.281Z,5.10
2019-04-11T06:11:24.118Z,5.80
2019-04-11T06:13:53.043Z,6.40
2019-04-11T06:16:19.431Z,6.60
2019-04-11T06:19:03.884Z,6.70
2019-04-11T06:21:35.960Z,6.60
2019-04-11T06:24:11.968Z,7.10
2019-04-11T06:26:57.335Z,7.20
2019-04-11T06:29:26.856Z,7.60
2019-04-11T06:32:06.175Z,7.70
2019-04-11T06:34:47.150Z,7.90
2019-04-11T06:37:15.522Z,9.40
2019-04-11T06:39:43.787Z,8.50
2019-04-11T06:42:30.172Z,8.80
2019-04-11T06:44:58.623Z,8.60
2019-04-11T06:47:39.045Z,8.60
2019-04-11T06:50:09.059Z,9.20
2019-04-11T06:52:37.478Z,9.50
2019-04-11T06:55:07.196Z,9.10
2019-04-11T06:57:36.172Z,9.60
2019-04-11T07:00:07.694Z,10.10
2019-04-11T07:02:36.913Z,10.10
2019-04-11T07:05:07.875Z,10.00
2019-04-11T07:07:36.209Z,9.80
2019-04-11T07:10:06.247Z,10.00
2019-04-11T07:12:38.499Z,10.90
2019-04-11T07:15:10.161Z,10.40
2019-04-11T07:17:55.074Z,10.60
2019-04-11T07:20:41.457Z,10.40
2019-04-11T07:23:26.574Z,10.70
2019-04-11T07:25:55.901Z,10.70
2019-04-11T07:28:30.116Z,11.20
2019-04-11T07:31:07.201Z,11.80
2019-04-11T07:33:37.293Z,12.10
2019-04-11T07:36:22.810Z,12.10
2019-04-11T07:39:07.651Z,12.30
2019-04-11T07:41:36.766Z,12.20
2019-04-11T07:44:04.265Z,12.10
2019-04-11T07:46:32.942Z,11.80
2019-04-11T07:48:59.504Z,11.30
2019-04-11T07:51:25.884Z,11.30
2019-04-11T07:53:53.076Z,11.60
2019-04-11T07:56:30.276Z,12.20
2019-04-11T07:59:02.717Z,12.40
2019-04-11T08:01:38.246Z,11.50
2019-04-11T08:04:23.984Z,11.70
2019-04-11T08:06:56.299Z,12.40
2019-04-11T08:09:43.889Z,12.80
2019-04-11T08:12:15.039Z,13.30
2019-04-11T08:15:01.469Z,14.10
2019-04-11T08:17:37.606Z,13.20
2019-04-11T08:20:19.392Z,11.70
2019-04-11T08:22:47.845Z,10.20
2019-04-11T08:25:33.533Z,9.10
2019-04-11T08:28:07.486Z,8.40
2019-04-11T08:30:35.018Z,7.80
2019-04-11T08:33:07.436Z,7.60
2019-04-11T08:35:38.378Z,7.10
2019-04-11T08:38:12.015Z,6.80
2019-04-11T08:40:55.858Z,6.60
2019-04-11T08:43:26.954Z,6.30
2019-04-11T08:46:12.954Z,6.20
2019-04-11T08:48:47.277Z,6.00
2019-04-11T08:51:19.197Z,6.00
2019-04-11T08:53:57.254Z,5.80
2019-04-11T08:56:25.036Z,5.80
2019-04-11T08:59:11.459Z,5.90
2019-04-11T09:01:38.149Z,5.80
2019-04-11T09:04:09.205Z,5.80
2019-04-11T09:06:35.332Z,5.80
2019-04-11T09:09:16.339Z,5.80
2019-04-11T09:11:46.821Z,5.70
2019-04-11T09:14:22.223Z,5.70
2019-04-11T09:16:56.731Z,5.80
2019-04-11T09:19:43.063Z,5.90
2019-04-11T09:22:11.416Z,6.00
2019-04-11T09:24:43.103Z,5.90
2019-04-11T09:27:28.962Z,6.00
2019-04-11T09:29:58.487Z,6.10
2019-04-11T09:32:32.704Z,6.30
2019-04-11T09:35:14.378Z,6.30
2019-04-11T09:37:42.894Z,6.30
2019-04-11T09:40:11.947Z,6.40
2019-04-11T09:42:47.119Z,6.30
2019-04-11T09:45:19.533Z,6.60
2019-04-11T09:48:12.602Z,6.60
2019-04-11T09:50:34.800Z,6.50
2019-04-11T09:53:01.572Z,6.50
2019-04-11T09:55:41.768Z,6.70
2019-04-11T09:58:27.373Z,6.60
2019-04-11T10:01:12.989Z,6.90
2019-04-11T10:03:40.807Z,6.60
2019-04-11T10:06:13.687Z,6.60
2019-04-11T10:08:42.020Z,6.60
2019-04-11T10:11:16.068Z,6.50
2019-04-11T10:13:53.371Z,6.30
2019-04-11T10:16:24.690Z,6.30
2019-04-11T10:19:08.406Z,6.20
2019-04-11T10:21:37.514Z,6.00
2019-04-11T10:24:09.566Z,5.90
2019-04-11T10:26:47.885Z,5.90
2019-04-11T10:29:19.264Z,5.80
2019-04-11T10:31:47.669Z,5.70
2019-04-11T10:34:15.939Z,5.80
2019-04-11T10:36:45.284Z,5.70
2019-04-11T10:39:20.048Z,5.60
2019-04-11T10:41:50.996Z,5.60
2019-04-11T10:44:19.238Z,5.50
2019-04-11T10:46:47.676Z,5.50
2019-04-11T10:49:24.886Z,5.40
2019-04-11T10:52:00.037Z,5.40
2019-04-11T10:54:29.691Z,5.50
2019-04-11T10:57:16.575Z,5.70
2019-04-11T10:59:44.976Z,5.60
2019-04-11T11:02:30.027Z,5.60
2019-04-11T11:04:57.202Z,5.70
2019-04-11T11:07:24.691Z,5.70
2019-04-11T11:09:56.732Z,5.80
2019-04-11T11:12:37.222Z,5.70
2019-04-11T11:15:07.302Z,5.70
2019-04-11T11:17:54.916Z,5.80
2019-04-11T11:20:27.426Z,5.90
2019-04-11T11:22:53.724Z,6.00
2019-04-11T11:25:39.338Z,5.90
2019-04-11T11:28:05.947Z,5.90
2019-04-11T11:30:35.368Z,5.90
2019-04-11T11:33:02.282Z,5.70
2019-04-11T11:35:49.887Z,6.00
2019-04-11T11:38:21.935Z,6.00
2019-04-11T11:41:07.909Z,6.00
2019-04-11T11:43:35.167Z,5.90
2019-04-11T11:46:06.926Z,6.00
2019-04-11T11:48:39.546Z,6.00
2019-04-11T11:53:59.405Z,6.00
2019-04-11T11:56:26.265Z,5.90
2019-04-11T11:58:57.840Z,5.90
2019-04-11T12:01:24.813Z,6.00
2019-04-11T12:04:10.756Z,6.80
2019-04-11T12:06:38.860Z,6.30
2019-04-11T12:09:07.262Z,6.00
2019-04-11T12:11:36.551Z,6.00
2019-04-11T12:14:05.044Z,6.00
2019-04-11T12:16:39.720Z,6.10
2019-04-11T12:19:15.842Z,6.20
2019-04-11T12:21:40.997Z,6.10
2019-04-11T12:24:26.611Z,6.00
2019-04-11T12:27:10.230Z,6.00
2019-04-11T12:29:44.404Z,6.10
2019-04-11T12:32:14.507Z,6.00
2019-04-11T12:37:14.862Z,5.60
2019-04-11T12:39:52.574Z,5.90
2019-04-11T12:42:23.667Z,5.90
2019-04-11T12:45:08.911Z,5.90
2019-04-11T12:47:38.556Z,6.10
2019-04-11T12:50:24.846Z,6.20
2019-04-11T12:52:56.076Z,5.90
2019-04-11T12:55:36.759Z,6.10
2019-04-11T12:58:07.617Z,5.80
2019-04-11T13:00:48.056Z,5.80
2019-04-11T13:03:31.196Z,5.70
2019-04-11T13:06:02.568Z,5.70
2019-04-11T13:08:47.145Z,5.70
2019-04-11T13:11:15.419Z,5.60
2019-04-11T13:14:00.666Z,5.60
2019-04-11T13:16:27.913Z,5.60
2019-04-11T13:19:13.195Z,5.50
2019-04-11T13:21:41.485Z,5.60
2019-04-11T13:24:15.426Z,5.60
2019-04-11T13:27:00.320Z,5.60
2019-04-11T13:29:31.791Z,5.60
2019-04-11T13:32:06.124Z,5.50
2019-04-11T13:34:34.467Z,7.50
2019-04-11T13:37:19.677Z,5.60
2019-04-11T13:39:50.579Z,5.60
2019-04-11T13:42:35.594Z,5.50
2019-04-11T13:45:02.149Z,5.50
2019-04-11T13:47:47.292Z,5.50
2019-04-11T13:50:16.798Z,5.60
2019-04-11T13:53:02.235Z,5.50
2019-04-11T13:55:28.739Z,5.40
2019-04-11T13:58:14.039Z,5.30
2019-04-11T14:00:45.279Z,5.40
2019-04-11T14:03:28.745Z,5.40
2019-04-11T14:05:57.082Z,5.50
2019-04-11T14:08:34.228Z,5.40
2019-04-11T14:11:02.542Z,5.40
2019-04-11T14:13:43.049Z,5.50
2019-04-11T14:16:11.300Z,5.60
2019-04-11T14:18:42.358Z,5.40
2019-04-11T14:21:14.296Z,5.50
2019-04-11T14:23:59.016Z,5.50
2019-04-11T14:26:39.599Z,5.60
2019-04-11T14:29:14.205Z,5.60
2019-04-11T14:31:50.926Z,5.60
2019-04-11T14:34:36.900Z,5.60
2019-04-11T14:37:14.218Z,5.60
2019-04-11T14:39:42.493Z,5.70
2019-04-11T14:42:14.069Z,5.70
2019-04-11T14:44:41.625Z,5.80
2019-04-11T14:47:26.556Z,5.70
2019-04-11T14:49:58.443Z,5.70
2019-04-11T14:52:30.903Z,5.70
2019-04-11T14:54:58.630Z,5.70
2019-04-11T14:57:29.700Z,5.70
2019-04-11T15:00:01.028Z,5.70
2019-04-11T15:02:41.566Z,5.60
2019-04-11T15:05:13.666Z,5.50
2019-04-11T15:07:39.392Z,5.40
2019-04-11T15:10:11.513Z,5.30
2019-04-11T15:12:39.238Z,5.30
2019-04-11T15:15:19.299Z,5.30
2019-04-11T15:17:46.318Z,5.20
2019-04-11T15:20:34.120Z,5.20
2019-04-11T15:23:06.694Z,5.10
2019-04-11T15:25:37.877Z,5.20
2019-04-11T15:28:13.175Z,5.10
2019-04-11T15:30:49.398Z,5.00
2019-04-11T15:33:34.462Z,4.90
2019-04-11T15:36:03.060Z,4.90
2019-04-11T15:38:48.043Z,4.80
2019-04-11T15:41:14.950Z,4.80
2019-04-11T15:43:59.336Z,4.80
2019-04-11T15:46:28.631Z,4.80
2019-04-11T15:49:05.533Z,4.80
2019-04-11T15:51:39.695Z,4.80
2019-04-11T15:54:13.578Z,4.80
2019-04-11T15:56:51.255Z,4.80
2019-04-11T15:59:37.876Z,4.80
2019-04-11T16:02:23.092Z,4.70
2019-04-11T16:04:59.315Z,4.70
2019-04-11T16:07:44.248Z,4.70
2019-04-11T16:10:11.994Z,4.70
2019-04-11T16:12:46.471Z,4.60
2019-04-11T16:15:16.296Z,4.70
2019-04-11T16:17:47.843Z,4.70
2019-04-11T16:20:17.831Z,4.60
2019-04-11T16:22:54.985Z,4.60
2019-04-11T16:25:20.226Z,4.60
2019-04-11T16:28:07.258Z,4.50
2019-04-11T16:30:35.143Z,4.50
2019-04-11T16:33:03.690Z,4.40
2019-04-11T16:35:48.905Z,4.40
2019-04-11T16:38:20.344Z,4.40
2019-04-11T16:41:03.747Z,4.40
2019-04-11T16:43:32.097Z,4.40
2019-04-11T16:46:17.353Z,4.30
2019-04-11T16:48:43.781Z,4.30
2019-04-11T16:51:10.184Z,4.20
2019-04-11T16:53:36.642Z,4.10
2019-04-11T16:56:03.249Z,4.20
2019-04-11T16:58:29.658Z,4.20
2019-04-11T17:00:56.097Z,4.10
2019-04-11T17:03:24.749Z,4.10
2019-04-11T17:05:58.729Z,4.10
2019-04-11T17:08:29.550Z,4.10
2019-04-11T17:11:03.933Z,4.10
2019-04-11T17:13:32.288Z,4.10
2019-04-11T17:16:00.101Z,4.10
2019-04-11T17:18:27.153Z,4.10
2019-04-11T17:20:53.586Z,4.10
2019-04-11T17:23:21.065Z,4.00
2019-04-11T17:25:52.353Z,4.00
2019-04-11T17:28:15.824Z,4.10
2019-04-11T17:30:42.270Z,4.00
2019-04-11T17:33:08.722Z,4.10
2019-04-11T17:35:35.187Z,4.00
2019-04-11T17:38:04.101Z,4.00
2019-04-11T17:40:29.907Z,3.90
2019-04-11T17:42:56.457Z,3.80
2019-04-11T17:45:22.925Z,3.90
2019-04-11T17:47:49.388Z,3.90
2019-04-11T17:50:16.130Z,3.80
2019-04-11T17:52:42.597Z,3.70
2019-04-11T17:55:09.057Z,3.80
2019-04-11T17:57:35.488Z,3.70
2019-04-11T18:00:07.317Z,3.70
2019-04-11T18:02:34.936Z,3.70
2019-04-11T18:05:01.311Z,3.70
2019-04-11T18:07:28.936Z,3.70
2019-04-11T18:09:56.023Z,3.70
2019-04-11T18:12:23.815Z,3.70
2019-04-11T18:14:51.344Z,3.80
2019-04-11T18:17:17.758Z,3.70
2019-04-11T18:19:44.149Z,3.60
2019-04-11T18:22:13.348Z,3.70
2019-04-11T18:24:38.906Z,3.60
2019-04-11T18:27:05.237Z,3.60
2019-04-11T18:29:31.672Z,3.60
2019-04-11T18:31:58.129Z,3.60
2019-04-11T18:34:24.546Z,3.60
2019-04-11T18:36:50.949Z,5.20
2019-04-11T18:39:17.480Z,3.60
2019-04-11T18:41:43.823Z,3.60
2019-04-11T18:44:10.268Z,3.60
2019-04-11T18:46:36.597Z,3.60
2019-04-11T18:49:04.592Z,3.60
2019-04-11T18:51:31.312Z,3.60
2019-04-11T18:53:58.063Z,3.60
2019-04-11T18:56:25.394Z,3.50
2019-04-11T18:58:51.994Z,3.50
2019-04-11T19:01:19.427Z,3.50
2019-04-11T19:03:45.808Z,3.50
2019-04-11T19:06:13.139Z,3.50
2019-04-11T19:08:43.084Z,3.50
2019-04-11T19:11:08.474Z,3.40
2019-04-11T19:13:34.879Z,3.40
2019-04-11T19:16:01.348Z,3.40
2019-04-11T19:18:27.866Z,3.50
2019-04-11T19:20:54.284Z,3.40
2019-04-11T19:23:20.710Z,3.60
2019-04-11T19:25:47.084Z,3.40
2019-04-11T19:28:13.514Z,3.40
2019-04-11T19:30:42.328Z,3.40
2019-04-11T19:33:08.105Z,3.40
2019-04-11T19:35:34.540Z,3.30
2019-04-11T19:38:00.949Z,3.40
2019-04-11T19:40:27.345Z,3.30
2019-04-11T19:42:53.726Z,3.70
2019-04-11T19:45:21.246Z,3.40
2019-04-11T19:47:51.835Z,3.40
2019-04-11T19:50:16.253Z,3.30
2019-04-11T19:52:45.723Z,3.40
2019-04-11T19:55:14.009Z,3.30
2019-04-11T19:57:40.437Z,3.40
2019-04-11T20:00:08.618Z,3.30
2019-04-11T20:02:35.328Z,3.30
2019-04-11T20:05:01.666Z,3.30
2019-04-11T20:07:28.899Z,3.30
2019-04-11T20:09:55.260Z,3.30
2019-04-11T20:12:21.650Z,3.30
2019-04-11T20:14:48.011Z,3.30
2019-04-11T20:17:14.402Z,3.30
2019-04-11T20:19:40.817Z,3.30
2019-04-11T20:22:08.598Z,3.20
2019-04-11T20:24:35.400Z,3.20
2019-04-11T20:27:01.789Z,3.20
2019-04-11T20:29:29.285Z,3.20
2019-04-11T20:31:55.663Z,3.20
2019-04-11T20:34:27.837Z,3.20
2019-04-11T20:36:50.261Z,3.20
2019-04-11T20:39:16.670Z,3.20
2019-04-11T20:41:43.030Z,3.20
2019-04-11T20:44:09.413Z,3.20
2019-04-11T20:46:35.830Z,3.20
2019-04-11T20:49:03.370Z,3.20
2019-04-11T20:51:29.797Z,3.20
2019-04-11T20:53:56.175Z,3.20
2019-04-11T20:56:24.475Z,3.20
2019-04-11T20:58:50.831Z,3.10
2019-04-11T21:01:17.228Z,3.10
2019-04-11T21:03:43.598Z,3.00
2019-04-11T21:06:10.152Z,3.10
2019-04-11T21:08:36.836Z,3.00
2019-04-11T21:11:04.492Z,3.10
2019-04-11T21:13:31.470Z,3.70
2019-04-11T21:15:57.846Z,3.10
2019-04-11T21:18:25.831Z,3.20
2019-04-11T21:20:55.054Z,3.00
2019-04-11T21:23:24.781Z,3.30
2019-04-11T21:25:48.735Z,3.10
2019-04-11T21:28:15.178Z,3.00
2019-04-11T21:30:41.611Z,3.00
2019-04-11T21:33:08.050Z,3.00
2019-04-11T21:35:34.417Z,3.00
2019-04-11T21:38:00.974Z,3.00
2019-04-11T21:40:27.362Z,3.00
2019-04-11T21:42:53.762Z,3.00
2019-04-11T21:45:20.152Z,3.00
2019-04-11T21:47:46.567Z,2.90
2019-04-11T21:50:13.074Z,2.90
2019-04-11T21:52:43.459Z,2.90
2019-04-11T21:55:07.826Z,3.00
2019-04-11T21:57:34.161Z,3.00
2019-04-11T22:00:01.631Z,3.00
2019-04-11T22:02:30.077Z,3.00
2019-04-11T22:04:58.556Z,3.00
2019-04-11T22:07:24.804Z,3.00
2019-04-11T22:09:51.223Z,3.20
2019-04-11T22:12:17.609Z,3.00
2019-04-11T22:14:44.027Z,3.00
2019-04-11T22:17:10.435Z,3.00
2019-04-11T22:19:36.870Z,3.10
2019-04-11T22:22:03.271Z,3.00
2019-04-11T22:24:29.692Z,3.00
2019-04-11T22:26:56.033Z,3.00
2019-04-11T22:29:24.825Z,3.00
2019-04-11T22:31:50.629Z,3.00
2019-04-11T22:34:30.667Z,3.00
2019-04-11T22:36:59.586Z,3.00
2019-04-11T22:39:25.405Z,2.90
2019-04-11T22:41:51.761Z,2.90
2019-04-11T22:44:18.135Z,3.00
2019-04-11T22:46:44.485Z,3.00
2019-04-11T22:49:10.850Z,3.00
2019-04-11T22:51:37.223Z,3.00
2019-04-11T22:54:03.707Z,3.00
2019-04-11T22:56:30.055Z,3.00
2019-04-11T22:58:56.445Z,3.00
2019-04-11T23:01:22.771Z,3.00
2019-04-11T23:03:51.062Z,2.90
2019-04-11T23:06:17.802Z,2.80
2019-04-11T23:08:48.549Z,2.90
2019-04-11T23:11:15.176Z,2.90
2019-04-11T23:13:45.356Z,2.90
2019-04-11T23:16:12.077Z,2.90
2019-04-11T23:18:38.212Z,2.90
2019-04-11T23:21:05.629Z,2.90
2019-04-11T23:23:31.991Z,2.90
2019-04-11T23:25:58.363Z,2.90
2019-04-11T23:28:24.754Z,2.90
2019-04-11T23:30:51.129Z,2.90
2019-04-11T23:33:18.914Z,2.90
2019-04-11T23:35:45.599Z,3.10
2019-04-11T23:38:11.925Z,2.90
2019-04-11T23:40:38.280Z,2.90
2019-04-11T23:43:04.676Z,3.00
2019-04-11T23:45:31.608Z,3.00
2019-04-11T23:47:57.964Z,2.90
2019-04-11T23:50:25.241Z,2.90
2019-04-11T23:52:52.295Z,2.90
2019-04-11T23:55:18.663Z,2.90
2019-04-11T23:57:45.116Z,2.90
